Аэропорт: Ульяновск-Восточный. Ульяновск

ICAO: UWLW

METAR:
2018/11/19 10:00
UWLW 191000Z 27005MPS 8000 OVC013 01/M02 Q1025 R20/CLRD60 NOSIG RMK QFE763
METAR:
2018/11/19 09:21
TAF UWLW 190745Z 1909/2009 30003G08MPS 5000 -SNRA BKN011 
      TEMPO 1909/1915 26006G12MPS 1500 SHSNRA BR BKN004 BKN013CB 
      TEMPO 1915/2009 35005G10MPS 3100 -SHSN BKN007 BKN013CB